sensor_id;sensor_type;location;lat;lon;timestamp;temperature;humidity
14014;DHT22;49110;52.584;13.408;2022-10-26T00:00:03;12.40;99.90
14014;DHT22;49110;52.584;13.408;2022-10-26T00:01:12;12.40;99.90
14014;DHT22;49110;52.584;13.408;2022-10-26T00:02:12;12.40;99.90
14014;DHT22;49110;52.584;13.408;2022-10-26T00:03:13;12.40;99.90
14014;DHT22;49110;52.584;13.408;2022-10-26T00:04:14;12.40;99.90
14014;DHT22;49110;52.584;13.408;2022-10-26T00:05:14;12.40;99.90
14014;DHT22;49110;52.584;13.408;2022-10-26T00:06:17;12.40;99.90
14014;DHT22;49110;52.584;13.408;2022-10-26T00:07:18;12.40;99.90
14014;DHT22;49110;52.584;13.408;2022-10-26T00:08:18;12.40;99.90
14014;DHT22;49110;52.584;13.408;2022-10-26T00:09:19;12.40;99.90
14014;DHT22;49110;52.584;13.408;2022-10-26T00:10:19;12.40;99.90
14014;DHT22;49110;52.584;13.408;2022-10-26T00:11:21;12.30;99.90
14014;DHT22;49110;52.584;13.408;2022-10-26T00:12:22;12.20;99.90
14014;DHT22;49110;52.584;13.408;2022-10-26T00:13:22;12.20;99.90
14014;DHT22;49110;52.584;13.408;2022-10-26T00:14:23;12.20;99.90
14014;DHT22;49110;52.584;13.408;2022-10-26T00:15:23;12.20;99.90
14014;DHT22;49110;52.584;13.408;2022-10-26T00:16:26;12.20;99.90
14014;DHT22;49110;52.584;13.408;2022-10-26T00:17:27;12.20;99.90
14014;DHT22;49110;52.584;13.408;2022-10-26T00:18:27;12.20;99.90
14014;DHT22;49110;52.584;13.408;2022-10-26T00:19:27;12.30;99.90
14014;DHT22;49110;52.584;13.408;2022-10-26T00:20:28;12.30;99.90
14014;DHT22;49110;52.584;13.408;2022-10-26T00:21:28;12.20;99.90
14014;DHT22;49110;52.584;13.408;2022-10-26T00:22:29;12.30;99.90
14014;DHT22;49110;52.584;13.408;2022-10-26T00:23:30;12.30;99.90
14014;DHT22;49110;52.584;13.408;2022-10-26T00:24:31;12.30;99.90
14014;DHT22;49110;52.584;13.408;2022-10-26T00:25:31;12.30;99.90
14014;DHT22;49110;52.584;13.408;2022-10-26T00:26:31;12.20;99.90
14014;DHT22;49110;52.584;13.408;2022-10-26T00:27:33;12.20;99.90
14014;DHT22;49110;52.584;13.408;2022-10-26T00:28:34;12.00;99.90
14014;DHT22;49110;52.584;13.408;2022-10-26T00:29:34;12.00;99.90
14014;DHT22;49110;52.584;13.408;2022-10-26T00:30:38;12.00;99.90
14014;DHT22;49110;52.584;13.408;2022-10-26T00:31:38;11.90;99.90
14014;DHT22;49110;52.584;13.408;2022-10-26T00:32:39;11.90;99.90
14014;DHT22;49110;52.584;13.408;2022-10-26T00:33:39;11.90;99.90
14014;DHT22;49110;52.584;13.408;2022-10-26T00:34:40;11.80;99.90
14014;DHT22;49110;52.584;13.408;2022-10-26T00:35:40;11.70;99.90
14014;DHT22;49110;52.584;13.408;2022-10-26T00:36:40;11.70;99.90
14014;DHT22;49110;52.584;13.408;2022-10-26T00:37:41;11.70;99.90
14014;DHT22;49110;52.584;13.408;2022-10-26T00:38:42;11.70;99.90
14014;DHT22;49110;52.584;13.408;2022-10-26T00:39:45;11.70;99.90
14014;DHT22;49110;52.584;13.408;2022-10-26T00:40:45;11.80;99.90
14014;DHT22;49110;52.584;13.408;2022-10-26T00:41:46;11.90;99.90
14014;DHT22;49110;52.584;13.408;2022-10-26T00:42:47;11.90;99.90
14014;DHT22;49110;52.584;13.408;2022-10-26T00:43:47;11.90;99.90
14014;DHT22;49110;52.584;13.408;2022-10-26T00:45:50;12.00;99.90
14014;DHT22;49110;52.584;13.408;2022-10-26T00:46:52;12.00;99.90
14014;DHT22;49110;52.584;13.408;2022-10-26T00:48:00;12.00;99.90
14014;DHT22;49110;52.584;13.408;2022-10-26T00:49:11;12.00;99.90
14014;DHT22;49110;52.584;13.408;2022-10-26T00:50:30;12.00;99.90
14014;DHT22;49110;52.584;13.408;2022-10-26T00:51:36;11.90;99.90
14014;DHT22;49110;52.584;13.408;2022-10-26T00:52:38;11.90;99.90
14014;DHT22;49110;52.584;13.408;2022-10-26T00:53:39;11.80;99.90
14014;DHT22;49110;52.584;13.408;2022-10-26T00:54:40;11.70;99.90
14014;DHT22;49110;52.584;13.408;2022-10-26T00:55:45;11.60;99.90
14014;DHT22;49110;52.584;13.408;2022-10-26T00:56:49;11.60;99.90
14014;DHT22;49110;52.584;13.408;2022-10-26T00:57:52;11.60;99.90
14014;DHT22;49110;52.584;13.408;2022-10-26T00:58:54;11.50;99.90
14014;DHT22;49110;52.584;13.408;2022-10-26T00:59:55;11.40;99.90
14014;DHT22;49110;52.584;13.408;2022-10-26T01:00:57;11.50;99.90
14014;DHT22;49110;52.584;13.408;2022-10-26T01:01:58;11.50;99.90
14014;DHT22;49110;52.584;13.408;2022-10-26T01:03:03;11.50;99.90
14014;DHT22;49110;52.584;13.408;2022-10-26T01:04:04;11.50;99.90
14014;DHT22;49110;52.584;13.408;2022-10-26T01:05:05;11.50;99.90
14014;DHT22;49110;52.584;13.408;2022-10-26T01:06:07;11.30;99.90
14014;DHT22;49110;52.584;13.408;2022-10-26T01:07:08;11.20;99.90
14014;DHT22;49110;52.584;13.408;2022-10-26T01:08:09;11.20;99.90
14014;DHT22;49110;52.584;13.408;2022-10-26T01:09:10;11.20;99.90
14014;DHT22;49110;52.584;13.408;2022-10-26T01:10:11;11.20;99.90
14014;DHT22;49110;52.584;13.408;2022-10-26T01:11:13;11.10;99.90
14014;DHT22;49110;52.584;13.408;2022-10-26T01:12:14;11.10;99.90
14014;DHT22;49110;52.584;13.408;2022-10-26T01:13:14;11.20;99.90
14014;DHT22;49110;52.584;13.408;2022-10-26T01:14:18;11.20;99.90
14014;DHT22;49110;52.584;13.408;2022-10-26T01:15:21;11.20;99.90
14014;DHT22;49110;52.584;13.408;2022-10-26T01:18:00;11.10;99.90
14014;DHT22;49110;52.584;13.408;2022-10-26T01:20:59;11.10;99.90
14014;DHT22;49110;52.584;13.408;2022-10-26T01:22:07;11.10;99.90
14014;DHT22;49110;52.584;13.408;2022-10-26T01:23:35;11.10;99.90
14014;DHT22;49110;52.584;13.408;2022-10-26T01:24:58;11.10;99.90
14014;DHT22;49110;52.584;13.408;2022-10-26T01:26:17;11.00;99.90
14014;DHT22;49110;52.584;13.408;2022-10-26T01:27:34;11.00;99.90
14014;DHT22;49110;52.584;13.408;2022-10-26T01:31:01;11.00;99.90
14014;DHT22;49110;52.584;13.408;2022-10-26T01:32:17;10.90;99.90
14014;DHT22;49110;52.584;13.408;2022-10-26T01:34:02;10.90;99.90
14014;DHT22;49110;52.584;13.408;2022-10-26T01:36:38;10.70;99.90
14014;DHT22;49110;52.584;13.408;2022-10-26T01:37:48;10.80;99.90
14014;DHT22;49110;52.584;13.408;2022-10-26T01:38:56;10.70;99.90
14014;DHT22;49110;52.584;13.408;2022-10-26T01:40:09;10.70;99.90
14014;DHT22;49110;52.584;13.408;2022-10-26T01:41:30;10.60;99.90
14014;DHT22;49110;52.584;13.408;2022-10-26T01:42:32;10.60;99.90
14014;DHT22;49110;52.584;13.408;2022-10-26T01:43:37;10.50;99.90
14014;DHT22;49110;52.584;13.408;2022-10-26T01:44:51;10.50;99.90
14014;DHT22;49110;52.584;13.408;2022-10-26T01:45:53;10.50;99.90
14014;DHT22;49110;52.584;13.408;2022-10-26T01:46:57;10.50;99.90
14014;DHT22;49110;52.584;13.408;2022-10-26T01:47:58;10.50;99.90
14014;DHT22;49110;52.584;13.408;2022-10-26T01:49:04;10.50;99.90
14014;DHT22;49110;52.584;13.408;2022-10-26T01:50:07;10.40;99.90
14014;DHT22;49110;52.584;13.408;2022-10-26T01:51:10;10.50;99.90
14014;DHT22;49110;52.584;13.408;2022-10-26T01:52:11;10.50;99.90
14014;DHT22;49110;52.584;13.408;2022-10-26T01:53:13;10.60;99.90
14014;DHT22;49110;52.584;13.408;2022-10-26T01:54:14;10.60;99.90
14014;DHT22;49110;52.584;13.408;2022-10-26T01:56:49;10.80;99.90
14014;DHT22;49110;52.584;13.408;2022-10-26T01:57:51;10.80;99.90
14014;DHT22;49110;52.584;13.408;2022-10-26T01:59:06;10.80;99.90
14014;DHT22;49110;52.584;13.408;2022-10-26T02:00:11;10.80;99.90
14014;DHT22;49110;52.584;13.408;2022-10-26T02:04:20;10.70;99.90
14014;DHT22;49110;52.584;13.408;2022-10-26T02:05:50;10.70;99.90
14014;DHT22;49110;52.584;13.408;2022-10-26T02:07:18;10.70;99.90
14014;DHT22;49110;52.584;13.408;2022-10-26T02:09:58;10.70;99.90
14014;DHT22;49110;52.584;13.408;2022-10-26T02:11:46;10.60;99.90
14014;DHT22;49110;52.584;13.408;2022-10-26T02:12:53;10.50;99.90
14014;DHT22;49110;52.584;13.408;2022-10-26T02:14:04;10.40;99.90
14014;DHT22;49110;52.584;13.408;2022-10-26T02:15:46;10.40;99.90
14014;DHT22;49110;52.584;13.408;2022-10-26T02:16:57;10.50;99.90
14014;DHT22;49110;52.584;13.408;2022-10-26T02:19:31;10.60;99.90
14014;DHT22;49110;52.584;13.408;2022-10-26T02:20:37;10.60;99.90
14014;DHT22;49110;52.584;13.408;2022-10-26T02:21:49;10.50;99.90
14014;DHT22;49110;52.584;13.408;2022-10-26T02:22:52;10.50;99.90
14014;DHT22;49110;52.584;13.408;2022-10-26T02:23:55;10.50;99.90
14014;DHT22;49110;52.584;13.408;2022-10-26T02:24:59;10.40;99.90
14014;DHT22;49110;52.584;13.408;2022-10-26T02:26:02;10.40;99.90
14014;DHT22;49110;52.584;13.408;2022-10-26T02:27:05;10.40;99.90
14014;DHT22;49110;52.584;13.408;2022-10-26T02:28:10;10.30;99.90
14014;DHT22;49110;52.584;13.408;2022-10-26T02:29:15;10.30;99.90
14014;DHT22;49110;52.584;13.408;2022-10-26T02:30:17;10.20;99.90
14014;DHT22;49110;52.584;13.408;2022-10-26T02:31:19;10.20;99.90
14014;DHT22;49110;52.584;13.408;2022-10-26T02:32:22;10.10;99.90
14014;DHT22;49110;52.584;13.408;2022-10-26T02:33:25;10.10;99.90
14014;DHT22;49110;52.584;13.408;2022-10-26T02:34:28;10.10;99.90
14014;DHT22;49110;52.584;13.408;2022-10-26T02:35:31;10.10;99.90
14014;DHT22;49110;52.584;13.408;2022-10-26T02:36:35;10.10;99.90
14014;DHT22;49110;52.584;13.408;2022-10-26T02:37:39;10.10;99.90
14014;DHT22;49110;52.584;13.408;2022-10-26T02:38:41;10.00;99.90
14014;DHT22;49110;52.584;13.408;2022-10-26T02:39:44;10.00;99.90
14014;DHT22;49110;52.584;13.408;2022-10-26T02:40:47;10.00;99.90
14014;DHT22;49110;52.584;13.408;2022-10-26T02:41:49;10.00;99.90
14014;DHT22;49110;52.584;13.408;2022-10-26T02:42:51;10.00;99.90
14014;DHT22;49110;52.584;13.408;2022-10-26T02:44:12;10.00;99.90
14014;DHT22;49110;52.584;13.408;2022-10-26T02:45:17;10.00;99.90
14014;DHT22;49110;52.584;13.408;2022-10-26T02:46:20;10.10;99.90
14014;DHT22;49110;52.584;13.408;2022-10-26T02:47:23;10.00;99.90
14014;DHT22;49110;52.584;13.408;2022-10-26T02:48:24;10.10;99.90
14014;DHT22;49110;52.584;13.408;2022-10-26T02:49:24;10.20;99.90
14014;DHT22;49110;52.584;13.408;2022-10-26T02:50:31;10.20;99.90
14014;DHT22;49110;52.584;13.408;2022-10-26T02:51:58;10.40;99.90
14014;DHT22;49110;52.584;13.408;2022-10-26T02:53:01;10.50;99.90
14014;DHT22;49110;52.584;13.408;2022-10-26T02:54:14;10.50;99.90
14014;DHT22;49110;52.584;13.408;2022-10-26T02:55:21;10.50;99.90
14014;DHT22;49110;52.584;13.408;2022-10-26T02:56:35;10.60;99.90
14014;DHT22;49110;52.584;13.408;2022-10-26T02:57:41;10.70;99.90
14014;DHT22;49110;52.584;13.408;2022-10-26T02:58:46;10.70;99.90
14014;DHT22;49110;52.584;13.408;2022-10-26T02:59:49;10.80;99.90
14014;DHT22;49110;52.584;13.408;2022-10-26T03:00:50;10.80;99.90
14014;DHT22;49110;52.584;13.408;2022-10-26T03:01:52;10.70;99.90
14014;DHT22;49110;52.584;13.408;2022-10-26T03:02:55;10.70;99.90
14014;DHT22;49110;52.584;13.408;2022-10-26T03:04:02;10.60;99.90
14014;DHT22;49110;52.584;13.408;2022-10-26T03:05:27;10.50;99.90
14014;DHT22;49110;52.584;13.408;2022-10-26T03:06:28;10.40;99.90
14014;DHT22;49110;52.584;13.408;2022-10-26T03:07:28;10.50;99.90
14014;DHT22;49110;52.584;13.408;2022-10-26T03:08:28;10.50;99.90
14014;DHT22;49110;52.584;13.408;2022-10-26T03:09:29;10.50;99.90
14014;DHT22;49110;52.584;13.408;2022-10-26T03:10:31;10.50;99.90
14014;DHT22;49110;52.584;13.408;2022-10-26T03:11:32;10.40;99.90
14014;DHT22;49110;52.584;13.408;2022-10-26T03:12:33;10.20;99.90
14014;DHT22;49110;52.584;13.408;2022-10-26T03:13:33;10.10;99.90
14014;DHT22;49110;52.584;13.408;2022-10-26T03:14:34;10.00;99.90
14014;DHT22;49110;52.584;13.408;2022-10-26T03:15:34;10.00;99.90
14014;DHT22;49110;52.584;13.408;2022-10-26T03:16:35;10.00;99.90
14014;DHT22;49110;52.584;13.408;2022-10-26T03:17:35;10.00;99.90
14014;DHT22;49110;52.584;13.408;2022-10-26T03:18:35;10.00;99.90
14014;DHT22;49110;52.584;13.408;2022-10-26T03:19:36;10.00;99.90
14014;DHT22;49110;52.584;13.408;2022-10-26T03:20:36;9.90;99.90
14014;DHT22;49110;52.584;13.408;2022-10-26T03:21:37;9.90;99.90
14014;DHT22;49110;52.584;13.408;2022-10-26T03:22:37;9.80;99.90
14014;DHT22;49110;52.584;13.408;2022-10-26T03:23:38;9.80;99.90
14014;DHT22;49110;52.584;13.408;2022-10-26T03:24:38;9.80;99.90
14014;DHT22;49110;52.584;13.408;2022-10-26T03:25:39;9.90;99.90
14014;DHT22;49110;52.584;13.408;2022-10-26T03:26:39;9.90;99.90
14014;DHT22;49110;52.584;13.408;2022-10-26T03:27:40;9.90;99.90
14014;DHT22;49110;52.584;13.408;2022-10-26T03:28:42;9.90;99.90
14014;DHT22;49110;52.584;13.408;2022-10-26T03:29:43;9.90;99.90
14014;DHT22;49110;52.584;13.408;2022-10-26T03:30:43;9.80;99.90
14014;DHT22;49110;52.584;13.408;2022-10-26T03:31:44;9.80;99.90
14014;DHT22;49110;52.584;13.408;2022-10-26T03:32:44;9.80;99.90
14014;DHT22;49110;52.584;13.408;2022-10-26T03:33:44;9.90;99.90
14014;DHT22;49110;52.584;13.408;2022-10-26T03:34:45;9.90;99.90
14014;DHT22;49110;52.584;13.408;2022-10-26T03:35:45;9.90;99.90
14014;DHT22;49110;52.584;13.408;2022-10-26T03:36:46;9.90;99.90
14014;DHT22;49110;52.584;13.408;2022-10-26T03:37:47;10.00;99.90
14014;DHT22;49110;52.584;13.408;2022-10-26T03:38:47;10.00;99.90
14014;DHT22;49110;52.584;13.408;2022-10-26T03:39:48;10.00;99.90
14014;DHT22;49110;52.584;13.408;2022-10-26T03:40:48;10.00;99.90
14014;DHT22;49110;52.584;13.408;2022-10-26T03:41:49;9.90;99.90
14014;DHT22;49110;52.584;13.408;2022-10-26T03:42:49;9.90;99.90
14014;DHT22;49110;52.584;13.408;2022-10-26T03:43:50;9.90;99.90
14014;DHT22;49110;52.584;13.408;2022-10-26T03:44:50;9.80;99.90
14014;DHT22;49110;52.584;13.408;2022-10-26T03:45:51;9.80;99.90
14014;DHT22;49110;52.584;13.408;2022-10-26T03:46:52;9.80;99.90
14014;DHT22;49110;52.584;13.408;2022-10-26T03:47:52;9.90;99.90
14014;DHT22;49110;52.584;13.408;2022-10-26T03:48:53;9.90;99.90
14014;DHT22;49110;52.584;13.408;2022-10-26T03:49:53;10.10;99.90
14014;DHT22;49110;52.584;13.408;2022-10-26T03:50:57;10.00;99.90
14014;DHT22;49110;52.584;13.408;2022-10-26T03:51:58;10.00;99.90
14014;DHT22;49110;52.584;13.408;2022-10-26T03:52:58;10.00;99.90
14014;DHT22;49110;52.584;13.408;2022-10-26T03:53:59;10.00;99.90
14014;DHT22;49110;52.584;13.408;2022-10-26T03:54:59;10.00;99.90
14014;DHT22;49110;52.584;13.408;2022-10-26T03:56:00;10.00;99.90
14014;DHT22;49110;52.584;13.408;2022-10-26T03:57:00;10.00;99.90
14014;DHT22;49110;52.584;13.408;2022-10-26T03:58:01;9.90;99.90
14014;DHT22;49110;52.584;13.408;2022-10-26T03:59:01;9.90;99.90
14014;DHT22;49110;52.584;13.408;2022-10-26T04:00:02;9.90;99.90
14014;DHT22;49110;52.584;13.408;2022-10-26T04:01:02;9.90;99.90
14014;DHT22;49110;52.584;13.408;2022-10-26T04:02:03;9.80;99.90
14014;DHT22;49110;52.584;13.408;2022-10-26T04:03:03;9.80;99.90
14014;DHT22;49110;52.584;13.408;2022-10-26T04:04:04;9.70;99.90
14014;DHT22;49110;52.584;13.408;2022-10-26T04:05:05;9.70;99.90
14014;DHT22;49110;52.584;13.408;2022-10-26T04:06:05;9.70;99.90
14014;DHT22;49110;52.584;13.408;2022-10-26T04:07:06;9.70;99.90
14014;DHT22;49110;52.584;13.408;2022-10-26T04:08:07;9.70;99.90
14014;DHT22;49110;52.584;13.408;2022-10-26T04:09:08;9.70;99.90
14014;DHT22;49110;52.584;13.408;2022-10-26T04:10:09;9.70;99.90
14014;DHT22;49110;52.584;13.408;2022-10-26T04:11:09;9.70;99.90
14014;DHT22;49110;52.584;13.408;2022-10-26T04:12:10;9.70;99.90
14014;DHT22;49110;52.584;13.408;2022-10-26T04:13:10;9.70;99.90
14014;DHT22;49110;52.584;13.408;2022-10-26T04:14:11;9.70;99.90
14014;DHT22;49110;52.584;13.408;2022-10-26T04:15:12;9.70;99.90
14014;DHT22;49110;52.584;13.408;2022-10-26T04:16:12;9.70;99.90
14014;DHT22;49110;52.584;13.408;2022-10-26T04:17:13;9.70;99.90
14014;DHT22;49110;52.584;13.408;2022-10-26T04:18:13;9.80;99.90
14014;DHT22;49110;52.584;13.408;2022-10-26T04:19:14;9.70;99.90
14014;DHT22;49110;52.584;13.408;2022-10-26T04:20:14;9.70;99.90
14014;DHT22;49110;52.584;13.408;2022-10-26T04:21:15;9.70;99.90
14014;DHT22;49110;52.584;13.408;2022-10-26T04:22:15;9.70;99.90
14014;DHT22;49110;52.584;13.408;2022-10-26T04:23:17;9.70;99.90
14014;DHT22;49110;52.584;13.408;2022-10-26T04:24:18;9.80;99.90
14014;DHT22;49110;52.584;13.408;2022-10-26T04:25:18;9.90;99.90
14014;DHT22;49110;52.584;13.408;2022-10-26T04:26:19;9.90;99.90
14014;DHT22;49110;52.584;13.408;2022-10-26T04:27:20;10.00;99.90
14014;DHT22;49110;52.584;13.408;2022-10-26T04:28:20;10.00;99.90
14014;DHT22;49110;52.584;13.408;2022-10-26T04:29:21;9.90;99.90
14014;DHT22;49110;52.584;13.408;2022-10-26T04:30:21;9.90;99.90
14014;DHT22;49110;52.584;13.408;2022-10-26T04:31:22;9.90;99.90
14014;DHT22;49110;52.584;13.408;2022-10-26T04:32:22;9.90;99.90
14014;DHT22;49110;52.584;13.408;2022-10-26T04:33:23;10.00;99.90
14014;DHT22;49110;52.584;13.408;2022-10-26T04:34:23;9.90;99.90
14014;DHT22;49110;52.584;13.408;2022-10-26T04:35:24;9.90;99.90
14014;DHT22;49110;52.584;13.408;2022-10-26T04:36:25;9.80;99.90
14014;DHT22;49110;52.584;13.408;2022-10-26T04:37:25;9.80;99.90
14014;DHT22;49110;52.584;13.408;2022-10-26T04:38:26;9.70;99.90
14014;DHT22;49110;52.584;13.408;2022-10-26T04:39:26;9.80;99.90
14014;DHT22;49110;52.584;13.408;2022-10-26T04:40:28;9.80;99.90
14014;DHT22;49110;52.584;13.408;2022-10-26T04:41:29;9.80;99.90
14014;DHT22;49110;52.584;13.408;2022-10-26T04:42:29;9.90;99.90
14014;DHT22;49110;52.584;13.408;2022-10-26T04:43:33;9.90;99.90
14014;DHT22;49110;52.584;13.408;2022-10-26T04:44:33;9.90;99.90
14014;DHT22;49110;52.584;13.408;2022-10-26T04:45:34;9.80;99.90
14014;DHT22;49110;52.584;13.408;2022-10-26T04:46:34;9.80;99.90
14014;DHT22;49110;52.584;13.408;2022-10-26T04:47:35;9.90;99.90
14014;DHT22;49110;52.584;13.408;2022-10-26T04:48:35;9.90;99.90
14014;DHT22;49110;52.584;13.408;2022-10-26T04:49:36;9.90;99.90
14014;DHT22;49110;52.584;13.408;2022-10-26T04:50:37;9.90;99.90
14014;DHT22;49110;52.584;13.408;2022-10-26T04:51:38;9.90;99.90
14014;DHT22;49110;52.584;13.408;2022-10-26T04:52:39;9.90;99.90
14014;DHT22;49110;52.584;13.408;2022-10-26T04:53:39;9.90;99.90
14014;DHT22;49110;52.584;13.408;2022-10-26T04:54:40;9.90;99.90
14014;DHT22;49110;52.584;13.408;2022-10-26T04:55:40;9.80;99.90
14014;DHT22;49110;52.584;13.408;2022-10-26T04:56:41;9.80;99.90
14014;DHT22;49110;52.584;13.408;2022-10-26T04:57:43;9.70;99.90
14014;DHT22;49110;52.584;13.408;2022-10-26T04:58:44;9.70;99.90
14014;DHT22;49110;52.584;13.408;2022-10-26T04:59:45;9.60;99.90
14014;DHT22;49110;52.584;13.408;2022-10-26T05:00:45;9.50;99.90
14014;DHT22;49110;52.584;13.408;2022-10-26T05:01:45;9.50;99.90
14014;DHT22;49110;52.584;13.408;2022-10-26T05:02:46;9.40;99.90
14014;DHT22;49110;52.584;13.408;2022-10-26T05:03:50;9.40;99.90
14014;DHT22;49110;52.584;13.408;2022-10-26T05:04:52;9.30;99.90
14014;DHT22;49110;52.584;13.408;2022-10-26T05:05:52;9.40;99.90
14014;DHT22;49110;52.584;13.408;2022-10-26T05:06:53;9.40;99.90
14014;DHT22;49110;52.584;13.408;2022-10-26T05:07:54;9.40;99.90
14014;DHT22;49110;52.584;13.408;2022-10-26T05:08:55;9.40;99.90
14014;DHT22;49110;52.584;13.408;2022-10-26T05:09:56;9.60;99.90
14014;DHT22;49110;52.584;13.408;2022-10-26T05:10:56;9.60;99.90
14014;DHT22;49110;52.584;13.408;2022-10-26T05:11:56;9.50;99.90
14014;DHT22;49110;52.584;13.408;2022-10-26T05:12:58;9.50;99.90
14014;DHT22;49110;52.584;13.408;2022-10-26T05:13:59;9.60;99.90
14014;DHT22;49110;52.584;13.408;2022-10-26T05:14:59;9.60;99.90
14014;DHT22;49110;52.584;13.408;2022-10-26T05:16:00;9.60;99.90
14014;DHT22;49110;52.584;13.408;2022-10-26T05:17:01;9.70;99.90
14014;DHT22;49110;52.584;13.408;2022-10-26T05:18:03;9.80;99.90
14014;DHT22;49110;52.584;13.408;2022-10-26T05:19:04;9.80;99.90
14014;DHT22;49110;52.584;13.408;2022-10-26T05:20:05;9.80;99.90
14014;DHT22;49110;52.584;13.408;2022-10-26T05:21:09;9.70;99.90
14014;DHT22;49110;52.584;13.408;2022-10-26T05:22:11;9.70;99.90
14014;DHT22;49110;52.584;13.408;2022-10-26T05:23:12;9.60;99.90
14014;DHT22;49110;52.584;13.408;2022-10-26T05:24:17;9.70;99.90
14014;DHT22;49110;52.584;13.408;2022-10-26T05:25:18;9.70;99.90
14014;DHT22;49110;52.584;13.408;2022-10-26T05:26:19;9.80;99.90
14014;DHT22;49110;52.584;13.408;2022-10-26T05:27:19;9.70;99.90
14014;DHT22;49110;52.584;13.408;2022-10-26T05:28:20;9.60;99.90
14014;DHT22;49110;52.584;13.408;2022-10-26T05:29:21;9.50;99.90
14014;DHT22;49110;52.584;13.408;2022-10-26T05:30:21;9.50;99.90
14014;DHT22;49110;52.584;13.408;2022-10-26T05:31:21;9.50;99.90
14014;DHT22;49110;52.584;13.408;2022-10-26T05:32:22;9.50;99.90
14014;DHT22;49110;52.584;13.408;2022-10-26T05:33:23;9.60;99.90
14014;DHT22;49110;52.584;13.408;2022-10-26T05:34:23;9.70;99.90
14014;DHT22;49110;52.584;13.408;2022-10-26T05:35:25;9.70;99.90
14014;DHT22;49110;52.584;13.408;2022-10-26T05:36:26;9.60;99.90
14014;DHT22;49110;52.584;13.408;2022-10-26T05:37:29;9.60;99.90
14014;DHT22;49110;52.584;13.408;2022-10-26T05:38:30;9.50;99.90
14014;DHT22;49110;52.584;13.408;2022-10-26T05:39:30;9.40;99.90
14014;DHT22;49110;52.584;13.408;2022-10-26T05:40:31;9.40;99.90
14014;DHT22;49110;52.584;13.408;2022-10-26T05:41:31;9.40;99.90
14014;DHT22;49110;52.584;13.408;2022-10-26T05:42:32;9.30;99.90
14014;DHT22;49110;52.584;13.408;2022-10-26T05:43:32;9.30;99.90
14014;DHT22;49110;52.584;13.408;2022-10-26T05:44:33;9.30;99.90
14014;DHT22;49110;52.584;13.408;2022-10-26T05:45:33;9.30;99.90
14014;DHT22;49110;52.584;13.408;2022-10-26T05:46:34;9.40;99.90
14014;DHT22;49110;52.584;13.408;2022-10-26T05:47:41;9.50;99.90
14014;DHT22;49110;52.584;13.408;2022-10-26T05:48:42;9.50;99.90
14014;DHT22;49110;52.584;13.408;2022-10-26T05:49:43;9.50;99.90
14014;DHT22;49110;52.584;13.408;2022-10-26T05:50:43;9.50;99.90
14014;DHT22;49110;52.584;13.408;2022-10-26T05:51:44;9.60;99.90
14014;DHT22;49110;52.584;13.408;2022-10-26T05:52:46;9.60;99.90
14014;DHT22;49110;52.584;13.408;2022-10-26T05:53:46;9.70;99.90
14014;DHT22;49110;52.584;13.408;2022-10-26T05:54:47;9.80;99.90
14014;DHT22;49110;52.584;13.408;2022-10-26T05:55:48;9.80;99.90
14014;DHT22;49110;52.584;13.408;2022-10-26T05:56:49;9.90;99.90
14014;DHT22;49110;52.584;13.408;2022-10-26T05:57:50;9.90;99.90
14014;DHT22;49110;52.584;13.408;2022-10-26T05:58:50;10.00;99.90
14014;DHT22;49110;52.584;13.408;2022-10-26T05:59:51;10.00;99.90
14014;DHT22;49110;52.584;13.408;2022-10-26T06:02:32;10.00;99.90
14014;DHT22;49110;52.584;13.408;2022-10-26T06:05:02;9.90;99.90
14014;DHT22;49110;52.584;13.408;2022-10-26T06:06:03;9.80;99.90
14014;DHT22;49110;52.584;13.408;2022-10-26T06:07:12;9.70;99.90
14014;DHT22;49110;52.584;13.408;2022-10-26T06:08:13;9.60;99.90
14014;DHT22;49110;52.584;13.408;2022-10-26T06:09:14;9.70;99.90
14014;DHT22;49110;52.584;13.408;2022-10-26T06:10:15;9.80;99.90
14014;DHT22;49110;52.584;13.408;2022-10-26T06:11:16;9.80;99.90
14014;DHT22;49110;52.584;13.408;2022-10-26T06:12:16;9.90;99.90
14014;DHT22;49110;52.584;13.408;2022-10-26T06:13:17;9.90;99.90
14014;DHT22;49110;52.584;13.408;2022-10-26T06:14:18;9.80;99.90
14014;DHT22;49110;52.584;13.408;2022-10-26T06:15:20;9.70;99.90
14014;DHT22;49110;52.584;13.408;2022-10-26T06:17:38;9.60;99.90
14014;DHT22;49110;52.584;13.408;2022-10-26T06:18:53;9.60;99.90
14014;DHT22;49110;52.584;13.408;2022-10-26T06:23:08;9.50;99.90
14014;DHT22;49110;52.584;13.408;2022-10-26T06:24:27;9.50;99.90
14014;DHT22;49110;52.584;13.408;2022-10-26T06:25:50;9.50;99.90
14014;DHT22;49110;52.584;13.408;2022-10-26T06:27:08;9.40;99.90
14014;DHT22;49110;52.584;13.408;2022-10-26T06:28:28;9.50;99.90
14014;DHT22;49110;52.584;13.408;2022-10-26T06:30:45;9.70;99.90
14014;DHT22;49110;52.584;13.408;2022-10-26T06:31:46;9.80;99.90
14014;DHT22;49110;52.584;13.408;2022-10-26T06:32:47;9.90;99.90
14014;DHT22;49110;52.584;13.408;2022-10-26T06:33:48;10.00;99.90
14014;DHT22;49110;52.584;13.408;2022-10-26T06:34:52;10.10;99.90
14014;DHT22;49110;52.584;13.408;2022-10-26T06:36:19;10.10;99.90
14014;DHT22;49110;52.584;13.408;2022-10-26T06:37:20;10.20;99.90
14014;DHT22;49110;52.584;13.408;2022-10-26T06:38:22;10.20;99.90
14014;DHT22;49110;52.584;13.408;2022-10-26T06:39:26;10.20;99.90
14014;DHT22;49110;52.584;13.408;2022-10-26T06:40:30;10.20;99.90
14014;DHT22;49110;52.584;13.408;2022-10-26T06:41:33;10.20;99.90
14014;DHT22;49110;52.584;13.408;2022-10-26T06:42:34;10.20;99.90
14014;DHT22;49110;52.584;13.408;2022-10-26T06:43:35;10.30;99.90
14014;DHT22;49110;52.584;13.408;2022-10-26T06:44:36;10.30;99.90
14014;DHT22;49110;52.584;13.408;2022-10-26T06:45:39;10.20;99.90
14014;DHT22;49110;52.584;13.408;2022-10-26T06:47:05;10.20;99.90
14014;DHT22;49110;52.584;13.408;2022-10-26T06:48:15;10.30;99.90
14014;DHT22;49110;52.584;13.408;2022-10-26T06:49:30;10.30;99.90
14014;DHT22;49110;52.584;13.408;2022-10-26T06:50:50;10.30;99.90
14014;DHT22;49110;52.584;13.408;2022-10-26T06:53:48;10.30;99.90
14014;DHT22;49110;52.584;13.408;2022-10-26T06:54:54;10.20;99.90
14014;DHT22;49110;52.584;13.408;2022-10-26T06:55:57;10.20;99.90
14014;DHT22;49110;52.584;13.408;2022-10-26T06:56:58;10.20;99.90
14014;DHT22;49110;52.584;13.408;2022-10-26T06:58:01;10.20;99.90
14014;DHT22;49110;52.584;13.408;2022-10-26T06:59:07;10.20;99.90
14014;DHT22;49110;52.584;13.408;2022-10-26T07:00:21;10.20;99.90
14014;DHT22;49110;52.584;13.408;2022-10-26T07:01:22;10.20;99.90
14014;DHT22;49110;52.584;13.408;2022-10-26T07:02:23;10.30;99.90
14014;DHT22;49110;52.584;13.408;2022-10-26T07:03:23;10.30;99.90